createdAt,value
2023-05-15T00:02:26.773Z,91.93
2023-05-15T00:05:29.298Z,91.29
2023-05-15T00:08:31.888Z,91.33
2023-05-15T00:11:37.120Z,92.02
2023-05-15T00:14:41.843Z,91.36
2023-05-15T00:17:46.493Z,91.29
2023-05-15T00:20:51.023Z,91.23
2023-05-15T00:23:54.103Z,90.80
2023-05-15T00:26:58.665Z,91.71
2023-05-15T00:30:03.554Z,91.18
2023-05-15T00:33:08.109Z,91.24
2023-05-15T00:36:12.426Z,90.43
2023-05-15T00:39:17.666Z,90.91
2023-05-15T00:42:24.972Z,91.36
2023-05-15T00:45:29.132Z,91.19
2023-05-15T00:48:39.280Z,91.38
2023-05-15T00:51:49.310Z,91.58
2023-05-15T00:54:51.783Z,91.46
2023-05-15T00:57:58.220Z,91.92
2023-05-15T01:01:00.513Z,92.00
2023-05-15T01:04:08.016Z,91.56
2023-05-15T01:07:12.768Z,92.11
2023-05-15T01:10:20.268Z,92.13
2023-05-15T01:13:25.116Z,92.12
2023-05-15T01:16:27.382Z,91.92
2023-05-15T01:19:32.982Z,91.96
2023-05-15T01:22:54.304Z,91.26
2023-05-15T01:26:29.728Z,91.33
2023-05-15T01:30:09.422Z,91.90
2023-05-15T01:33:34.297Z,91.35
2023-05-15T01:36:43.021Z,91.66
2023-05-15T01:39:48.920Z,91.96
2023-05-15T01:42:56.157Z,91.57
2023-05-15T01:45:59.073Z,91.58
2023-05-15T01:49:03.781Z,91.65
2023-05-15T01:52:14.683Z,92.22
2023-05-15T01:55:22.358Z,91.63
2023-05-15T01:58:26.797Z,91.84
2023-05-15T02:01:32.419Z,92.34
2023-05-15T02:04:35.647Z,92.62
2023-05-15T02:07:43.172Z,91.89
2023-05-15T02:10:48.445Z,91.98
2023-05-15T02:13:54.963Z,91.53
2023-05-15T02:16:59.803Z,92.39
2023-05-15T02:20:08.011Z,92.11
2023-05-15T02:23:13.341Z,92.24
2023-05-15T02:26:34.019Z,90.99
2023-05-15T02:29:49.459Z,91.84
2023-05-15T02:33:26.078Z,91.75
2023-05-15T02:36:33.784Z,92.30
2023-05-15T02:39:38.806Z,92.47
2023-05-15T02:42:42.313Z,92.40
2023-05-15T02:45:48.020Z,92.66
2023-05-15T02:48:54.608Z,92.72
2023-05-15T02:51:59.305Z,92.38
2023-05-15T02:55:04.447Z,92.47
2023-05-15T02:58:10.339Z,92.91
2023-05-15T03:01:15.115Z,92.84
2023-05-15T03:04:21.022Z,92.31
2023-05-15T03:07:23.471Z,91.57
2023-05-15T03:10:27.969Z,92.37
2023-05-15T03:13:30.304Z,92.42
2023-05-15T03:16:39.842Z,92.02
2023-05-15T03:19:45.070Z,92.74
2023-05-15T03:22:47.514Z,92.54
2023-05-15T03:25:49.772Z,92.74
2023-05-15T03:28:55.755Z,92.54
2023-05-15T03:31:58.016Z,92.28
2023-05-15T03:35:02.692Z,92.04
2023-05-15T03:38:05.120Z,91.83
2023-05-15T03:41:10.343Z,92.93
2023-05-15T03:44:15.123Z,93.69
2023-05-15T03:47:19.662Z,93.30
2023-05-15T03:50:24.534Z,92.92
2023-05-15T03:53:26.804Z,92.39
2023-05-15T03:56:29.056Z,92.98
2023-05-15T03:59:34.088Z,93.15
2023-05-15T04:02:37.205Z,92.68
2023-05-15T04:05:39.697Z,92.27
2023-05-15T04:08:42.015Z,92.17
2023-05-15T04:11:48.700Z,92.98
2023-05-15T04:14:53.697Z,92.30
2023-05-15T04:18:05.125Z,91.96
2023-05-15T04:21:10.333Z,91.54
2023-05-15T04:24:12.516Z,92.09
2023-05-15T04:27:17.024Z,91.83
2023-05-15T04:30:19.362Z,92.07
2023-05-15T04:33:26.696Z,92.26
2023-05-15T04:36:32.057Z,91.75
2023-05-15T04:39:36.664Z,92.17
2023-05-15T04:42:41.515Z,92.26
2023-05-15T04:45:46.362Z,92.28
2023-05-15T04:48:51.098Z,92.26
2023-05-15T04:51:55.634Z,91.58
2023-05-15T04:54:58.238Z,91.90
2023-05-15T04:58:03.417Z,91.98
2023-05-15T05:01:05.798Z,91.97
2023-05-15T05:04:08.411Z,92.16
2023-05-15T05:07:10.842Z,91.91
2023-05-15T05:10:13.966Z,92.02
2023-05-15T05:13:16.200Z,92.24
2023-05-15T05:16:18.556Z,91.79
2023-05-15T05:19:23.014Z,91.74
2023-05-15T05:22:25.288Z,91.40
2023-05-15T05:25:28.833Z,91.60
2023-05-15T05:28:31.093Z,91.48
2023-05-15T05:31:33.469Z,91.22
2023-05-15T05:34:36.026Z,91.13
2023-05-15T05:37:42.994Z,91.52
2023-05-15T05:40:45.480Z,91.44
2023-05-15T05:43:47.967Z,90.89
2023-05-15T05:46:50.441Z,90.99
2023-05-15T05:49:52.844Z,90.33
2023-05-15T05:52:55.409Z,90.78
2023-05-15T05:56:02.582Z,90.37
2023-05-15T05:59:06.594Z,89.76
2023-05-15T06:02:11.714Z,89.46
2023-05-15T06:05:16.353Z,89.26
2023-05-15T06:08:19.687Z,88.37
2023-05-15T06:11:24.984Z,88.65
2023-05-15T06:14:27.725Z,88.15
2023-05-15T06:17:32.593Z,88.04
2023-05-15T06:20:34.948Z,88.31
2023-05-15T06:23:39.599Z,88.23
2023-05-15T06:26:42.023Z,87.21
2023-05-15T06:29:44.301Z,87.98
2023-05-15T06:32:46.582Z,86.34
2023-05-15T06:35:48.980Z,87.46
2023-05-15T06:38:53.455Z,86.84
2023-05-15T06:41:59.202Z,85.69
2023-05-15T06:45:01.646Z,84.53
2023-05-15T06:48:04.106Z,83.69
2023-05-15T06:51:06.507Z,83.39
2023-05-15T06:54:13.537Z,81.90
2023-05-15T06:57:18.589Z,80.60
2023-05-15T07:00:23.314Z,81.37
2023-05-15T07:03:27.801Z,80.05
2023-05-15T07:06:32.660Z,81.01
2023-05-15T07:09:35.649Z,79.89
2023-05-15T07:12:42.944Z,78.59
2023-05-15T07:15:45.376Z,77.09
2023-05-15T07:18:48.275Z,76.63
2023-05-15T07:21:50.640Z,77.00
2023-05-15T07:24:52.955Z,79.34
2023-05-15T07:27:57.568Z,80.23
2023-05-15T07:31:03.094Z,81.07
2023-05-15T07:34:08.367Z,81.12
2023-05-15T07:37:13.981Z,77.26
2023-05-15T07:40:17.178Z,77.77
2023-05-15T07:43:19.451Z,77.67
2023-05-15T07:46:21.812Z,79.93
2023-05-15T07:49:27.039Z,78.94
2023-05-15T07:52:31.825Z,78.97
2023-05-15T07:55:34.095Z,78.65
2023-05-15T07:58:38.011Z,79.38
2023-05-15T08:01:40.288Z,79.84
2023-05-15T08:04:45.072Z,79.60
2023-05-15T08:07:49.679Z,77.84
2023-05-15T08:10:54.309Z,77.91
2023-05-15T08:13:56.698Z,76.44
2023-05-15T08:16:59.148Z,75.58
2023-05-15T08:20:01.359Z,75.95
2023-05-15T08:23:03.764Z,75.41
2023-05-15T08:26:06.018Z,76.46
2023-05-15T08:29:11.590Z,76.11
2023-05-15T08:32:16.146Z,75.45
2023-05-15T08:35:18.409Z,74.99
2023-05-15T08:38:20.648Z,73.26
2023-05-15T08:41:40.417Z,71.75
2023-05-15T08:44:44.287Z,72.34
2023-05-15T08:47:51.413Z,70.75
2023-05-15T08:50:55.208Z,72.29
2023-05-15T08:53:57.747Z,69.67
2023-05-15T08:57:00.842Z,68.20
2023-05-15T09:00:09.324Z,66.64
2023-05-15T09:03:16.475Z,66.44
2023-05-15T09:06:19.167Z,67.16
2023-05-15T09:09:24.464Z,64.33
2023-05-15T09:12:27.295Z,63.02
2023-05-15T09:15:37.264Z,61.89
2023-05-15T09:18:44.872Z,62.67
2023-05-15T09:21:47.132Z,61.86
2023-05-15T09:24:52.967Z,62.00
2023-05-15T09:27:57.485Z,62.21
2023-05-15T09:31:04.045Z,62.03
2023-05-15T09:34:10.274Z,64.10
2023-05-15T09:37:32.313Z,63.08
2023-05-15T09:40:36.966Z,63.58
2023-05-15T09:43:44.509Z,64.63
2023-05-15T09:46:47.323Z,62.69
2023-05-15T09:49:52.548Z,61.41
2023-05-15T09:52:58.772Z,61.22
2023-05-15T09:56:01.090Z,60.93
2023-05-15T09:59:03.544Z,62.31
2023-05-15T10:02:13.559Z,62.84
2023-05-15T10:05:15.956Z,63.15
2023-05-15T10:08:27.406Z,60.67
2023-05-15T10:11:46.218Z,60.36
2023-05-15T10:14:51.197Z,59.70
2023-05-15T10:17:58.811Z,58.30
2023-05-15T10:21:04.259Z,59.64
2023-05-15T10:24:10.827Z,59.96
2023-05-15T10:27:15.305Z,60.18
2023-05-15T10:30:17.671Z,61.37
2023-05-15T10:33:22.797Z,61.79
2023-05-15T10:36:30.953Z,62.03
2023-05-15T10:39:41.118Z,62.74
2023-05-15T10:42:46.040Z,62.03
2023-05-15T10:45:48.834Z,62.56
2023-05-15T10:48:54.388Z,62.00
2023-05-15T10:52:00.627Z,62.85
2023-05-15T10:55:11.949Z,62.29
2023-05-15T10:58:16.726Z,61.80
2023-05-15T11:01:32.099Z,61.17
2023-05-15T11:04:35.199Z,60.73
2023-05-15T11:07:40.208Z,60.37
2023-05-15T11:10:42.564Z,59.30
2023-05-15T11:14:06.332Z,59.74
2023-05-15T11:17:15.446Z,59.45
2023-05-15T11:20:37.842Z,57.23
2023-05-15T11:23:42.545Z,56.88
2023-05-15T11:26:44.839Z,57.65
2023-05-15T11:30:06.090Z,56.97
2023-05-15T11:33:11.498Z,57.45
2023-05-15T11:36:18.505Z,56.66
2023-05-15T11:39:25.268Z,56.45
2023-05-15T11:42:29.992Z,57.07
2023-05-15T11:45:43.215Z,56.62
2023-05-15T11:48:50.286Z,56.76
2023-05-15T11:51:56.003Z,56.83
2023-05-15T11:55:03.261Z,56.87
2023-05-15T11:58:06.539Z,55.56
2023-05-15T12:01:10.997Z,55.29
2023-05-15T12:04:19.787Z,56.00
2023-05-15T12:07:24.688Z,55.89
2023-05-15T12:10:30.283Z,56.32
2023-05-15T12:13:37.818Z,56.69
2023-05-15T12:16:41.776Z,57.04
2023-05-15T12:19:51.845Z,56.90
2023-05-15T12:22:58.719Z,55.59
2023-05-15T12:26:02.780Z,55.99
2023-05-15T12:29:09.171Z,54.57
2023-05-15T12:32:11.948Z,57.59
2023-05-15T12:35:18.951Z,57.09
2023-05-15T12:38:24.994Z,56.84
2023-05-15T12:41:31.121Z,56.76
2023-05-15T12:44:38.782Z,56.15
2023-05-15T12:47:42.354Z,57.09
2023-05-15T12:50:47.170Z,57.70
2023-05-15T12:53:57.464Z,57.51
2023-05-15T12:57:01.465Z,58.54
2023-05-15T13:00:05.654Z,59.90
2023-05-15T13:03:12.262Z,62.81
2023-05-15T13:06:16.709Z,62.66
2023-05-15T13:09:26.869Z,62.44
2023-05-15T13:12:42.895Z,63.63
2023-05-15T13:15:48.911Z,64.09
2023-05-15T13:23:39.243Z,62.58
2023-05-15T13:26:44.225Z,62.62
2023-05-15T13:39:23.226Z,61.24
2023-05-15T13:42:27.955Z,62.85
2023-05-15T13:45:30.276Z,63.08
2023-05-15T13:48:32.492Z,61.87
2023-05-15T13:51:37.262Z,59.53
2023-05-15T13:54:44.233Z,60.90
2023-05-15T13:57:46.644Z,61.41
2023-05-15T14:00:51.783Z,61.61
2023-05-15T14:03:54.249Z,60.96
2023-05-15T14:06:56.459Z,61.30
2023-05-15T14:10:04.059Z,62.19
2023-05-15T14:13:06.403Z,63.49
2023-05-15T14:16:11.026Z,63.59
2023-05-15T14:19:13.455Z,63.71
2023-05-15T14:22:18.486Z,63.88
2023-05-15T14:25:20.881Z,64.50
2023-05-15T14:28:23.085Z,64.26
2023-05-15T14:31:27.618Z,63.45
2023-05-15T14:34:30.852Z,64.93
2023-05-15T14:37:33.376Z,68.64
2023-05-15T14:40:35.718Z,69.49
2023-05-15T14:43:38.229Z,70.84
2023-05-15T14:46:45.058Z,72.05
2023-05-15T14:49:49.625Z,72.66
2023-05-15T14:52:51.995Z,73.80
2023-05-15T14:56:02.066Z,74.54
2023-05-15T14:59:07.188Z,76.10
2023-05-15T15:02:11.969Z,75.51
2023-05-15T15:05:14.326Z,74.67
2023-05-15T15:08:16.826Z,73.45
2023-05-15T15:11:21.532Z,73.76
2023-05-15T15:14:26.163Z,73.79
2023-05-15T15:17:30.664Z,73.11
2023-05-15T15:20:36.209Z,72.27
2023-05-15T15:23:43.157Z,72.78
2023-05-15T15:26:45.420Z,71.86
2023-05-15T15:29:47.792Z,73.03
2023-05-15T15:32:50.111Z,72.45
2023-05-15T15:35:53.056Z,72.57
2023-05-15T15:38:55.306Z,72.31
2023-05-15T15:41:57.632Z,72.66
2023-05-15T15:45:02.379Z,70.81
2023-05-15T15:48:04.842Z,71.75
2023-05-15T15:51:07.315Z,69.62
2023-05-15T15:54:09.612Z,69.78
2023-05-15T15:57:11.939Z,69.86
2023-05-15T16:00:17.415Z,69.82
2023-05-15T16:03:19.818Z,69.86
2023-05-15T16:06:22.185Z,69.89
2023-05-15T16:09:26.682Z,69.71
2023-05-15T16:12:31.451Z,67.69
2023-05-15T16:15:36.270Z,67.46
2023-05-15T16:18:38.654Z,66.83
2023-05-15T16:21:45.871Z,67.80
2023-05-15T16:24:48.148Z,67.63
2023-05-15T16:27:50.490Z,68.02
2023-05-15T16:30:53.212Z,68.94
2023-05-15T16:34:03.680Z,68.32
2023-05-15T16:37:08.593Z,68.55
2023-05-15T16:40:13.373Z,68.06
2023-05-15T16:43:18.428Z,68.29
2023-05-15T16:46:24.780Z,68.61
2023-05-15T16:49:29.389Z,67.74
2023-05-15T16:52:38.688Z,68.89
2023-05-15T16:55:41.115Z,68.50
2023-05-15T16:58:43.430Z,68.30
2023-05-15T17:01:45.717Z,68.93
2023-05-15T17:04:48.084Z,68.88
2023-05-15T17:07:52.690Z,68.45
2023-05-15T17:10:57.393Z,68.90
2023-05-15T17:13:59.647Z,69.96
2023-05-15T17:17:01.964Z,70.12
2023-05-15T17:20:06.692Z,68.87
2023-05-15T17:23:11.491Z,69.94
2023-05-15T17:26:13.728Z,66.26
2023-05-15T17:29:18.247Z,68.29
2023-05-15T17:32:21.638Z,65.73
2023-05-15T17:35:30.732Z,66.35
2023-05-15T17:38:37.325Z,65.72
2023-05-15T17:41:39.596Z,64.90
2023-05-15T17:44:41.850Z,64.28
2023-05-15T17:47:46.663Z,64.64
2023-05-15T17:50:53.770Z,61.62
2023-05-15T17:53:56.168Z,61.24
2023-05-15T17:56:58.577Z,61.48
2023-05-15T18:00:00.937Z,61.31
2023-05-15T18:03:04.189Z,60.34
2023-05-15T18:06:06.629Z,62.23
2023-05-15T18:09:11.796Z,60.85
2023-05-15T18:12:14.035Z,60.27
2023-05-15T18:15:19.342Z,59.35
2023-05-15T18:18:23.035Z,60.29
2023-05-15T18:21:28.198Z,60.14
2023-05-15T18:24:30.649Z,59.84
2023-05-15T18:27:35.014Z,60.33
2023-05-15T18:30:37.239Z,61.21
2023-05-15T18:33:45.925Z,61.56
2023-05-15T18:36:51.983Z,61.75
2023-05-15T18:39:58.931Z,63.53
2023-05-15T18:43:01.481Z,65.02
2023-05-15T18:46:05.669Z,64.79
2023-05-15T18:49:08.037Z,65.05
2023-05-15T18:52:12.657Z,66.04
2023-05-15T18:55:14.977Z,67.34
2023-05-15T18:58:17.279Z,67.45
2023-05-15T19:01:19.611Z,68.57
2023-05-15T19:04:22.342Z,68.83
2023-05-15T19:07:24.706Z,68.88
2023-05-15T19:10:30.629Z,69.46
2023-05-15T19:13:35.760Z,70.29
2023-05-15T19:16:40.524Z,70.64
2023-05-15T19:19:55.524Z,70.95
2023-05-15T19:22:57.956Z,71.18
2023-05-15T19:26:00.361Z,71.46
2023-05-15T19:29:05.101Z,72.30
2023-05-15T19:32:09.884Z,72.66
2023-05-15T19:35:12.307Z,72.45
2023-05-15T19:38:14.578Z,73.01
2023-05-15T19:41:21.684Z,72.57
2023-05-15T19:44:26.405Z,72.79
2023-05-15T19:47:31.346Z,72.90
2023-05-15T19:50:37.708Z,70.91
2023-05-15T19:53:40.137Z,71.13
2023-05-15T19:56:42.417Z,71.51
2023-05-15T19:59:45.184Z,72.34
2023-05-15T20:02:48.221Z,72.82
2023-05-15T20:05:52.840Z,72.85
2023-05-15T20:08:57.456Z,72.77
2023-05-15T20:12:03.323Z,72.55
2023-05-15T20:15:08.866Z,73.43
2023-05-15T20:18:14.949Z,73.42
2023-05-15T20:21:17.245Z,74.00
2023-05-15T20:24:25.645Z,73.53
2023-05-15T20:27:30.602Z,73.65
2023-05-15T20:30:33.072Z,74.18
2023-05-15T20:33:35.384Z,74.28
2023-05-15T20:36:40.047Z,73.93
2023-05-15T20:39:45.450Z,74.17
2023-05-15T20:42:50.480Z,74.30
2023-05-15T20:45:52.971Z,74.21
2023-05-15T20:48:58.025Z,75.06
2023-05-15T20:52:00.864Z,75.00
2023-05-15T20:55:13.541Z,75.25
2023-05-15T20:58:18.808Z,75.59
2023-05-15T21:01:23.311Z,72.73
2023-05-15T21:04:28.367Z,74.28
2023-05-15T21:07:33.825Z,74.34
2023-05-15T21:10:36.084Z,74.58
2023-05-15T21:13:38.437Z,74.29
2023-05-15T21:16:41.159Z,74.33
2023-05-15T21:19:44.336Z,74.06
2023-05-15T21:22:49.222Z,74.90
2023-05-15T21:25:53.837Z,74.89
2023-05-15T21:29:03.981Z,74.46
2023-05-15T21:32:09.297Z,75.17
2023-05-15T21:35:14.326Z,74.69
2023-05-15T21:38:19.402Z,75.27
2023-05-15T21:41:22.101Z,76.10
2023-05-15T21:44:29.167Z,76.41
2023-05-15T21:47:33.957Z,75.16
2023-05-15T21:50:38.535Z,75.70
2023-05-15T21:53:45.822Z,74.88
2023-05-15T21:56:53.634Z,74.68
2023-05-15T21:59:58.432Z,74.88
2023-05-15T22:03:02.951Z,75.06
2023-05-15T22:06:07.618Z,75.05
2023-05-15T22:09:10.061Z,74.86
2023-05-15T22:12:15.519Z,76.08
2023-05-15T22:15:17.780Z,76.09
2023-05-15T22:18:20.035Z,75.96
2023-05-15T22:21:22.313Z,76.93
2023-05-15T22:24:27.298Z,77.05
2023-05-15T22:27:29.578Z,77.36
2023-05-15T22:30:35.550Z,77.72
2023-05-15T22:33:40.442Z,77.69
2023-05-15T22:36:44.979Z,77.53
2023-05-15T22:39:47.832Z,77.84
2023-05-15T22:42:50.299Z,78.45
2023-05-15T22:45:52.715Z,79.32
2023-05-15T22:49:00.523Z,79.69
2023-05-15T22:52:07.000Z,79.51
2023-05-15T22:55:12.904Z,79.58
2023-05-15T22:58:15.171Z,80.10
2023-05-15T23:01:17.450Z,79.95
2023-05-15T23:04:22.132Z,80.69
2023-05-15T23:07:26.972Z,81.00
2023-05-15T23:10:31.691Z,81.38
2023-05-15T23:13:36.141Z,81.66
2023-05-15T23:16:40.898Z,81.80
2023-05-15T23:19:45.472Z,82.10
2023-05-15T23:22:47.837Z,82.50
2023-05-15T23:25:50.152Z,82.49
2023-05-15T23:28:52.404Z,82.70
2023-05-15T23:31:56.940Z,82.99
2023-05-15T23:35:01.500Z,83.00
2023-05-15T23:38:06.116Z,82.67
2023-05-15T23:41:08.667Z,82.71
2023-05-15T23:44:18.918Z,82.49
2023-05-15T23:47:21.594Z,82.76
2023-05-15T23:50:24.193Z,82.77
2023-05-15T23:53:28.838Z,82.55
2023-05-15T23:56:31.183Z,82.28
2023-05-15T23:59:36.278Z,83.20
